Time;durP1;ratioP1;P1;durP2;ratioP2;P2;SDS_P1;SDS_P2;PMS_P1;PMS_P2;Temp;Humidity;BMP_temperature;BMP_pressure;BME280_temperature;BME280_humidity;BME280_pressure;Samples;Min_cycle;Max_cycle;Signal;HPM_P1;HPM_P2
2022/12/17 13:07:40;;;;;;;46.60;18.10;;;;;;;-4.35;94.25;102247.56;7395844;19;20018;-72
2022/12/17 13:10:26;;;;;;;45.83;19.20;;;;;;;-4.37;94.65;102244.91;7397197;19;20031;-72
2022/12/17 13:12:54;;;;;;;44.90;18.48;;;;;;;-4.37;95.17;102246.56;7396520;19;20083;-73
2022/12/17 13:15:33;;;;;;;42.33;19.65;;;;;;;-4.32;95.10;102250.31;7395982;19;20481;-71
2022/12/17 13:18:20;;;;;;;42.55;19.45;;;;;;;-4.27;95.29;102251.50;7396518;19;20056;-71
2022/12/17 13:20:59;;;;;;;44.92;20.00;;;;;;;-4.23;95.28;102250.91;7396403;19;20021;-71
2022/12/17 13:23:33;;;;;;;46.65;19.70;;;;;;;-4.19;95.29;102252.88;7392329;19;20495;-72
2022/12/17 13:26:21;;;;;;;48.72;20.05;;;;;;;-4.15;95.22;102251.38;7395896;19;20018;-70
2022/12/17 13:29:00;;;;;;;43.97;19.50;;;;;;;-4.13;95.04;102257.50;7396186;19;20484;-72
2022/12/17 13:31:31;;;;;;;45.28;19.80;;;;;;;-4.12;95.29;102257.59;7396691;19;20031;-71
2022/12/17 13:34:09;;;;;;;42.65;19.08;;;;;;;-4.11;94.95;102256.81;7394383;19;20082;-71
2022/12/17 13:36:47;;;;;;;50.42;26.90;;;;;;;-4.14;94.92;102251.47;7394838;19;20078;-72
2022/12/17 13:39:30;;;;;;;46.15;24.33;;;;;;;-4.09;94.67;102254.34;7396138;19;20078;-71
2022/12/17 13:41:59;;;;;;;42.13;19.25;;;;;;;-4.07;94.95;102257.00;7396336;19;20090;-70
2022/12/17 13:44:32;;;;;;;38.08;17.77;;;;;;;-4.08;94.87;102256.13;7394545;19;20070;-70
2022/12/17 13:47:00;;;;;;;42.60;19.67;;;;;;;-4.09;94.80;102252.66;7394868;19;20014;-71
2022/12/17 13:49:30;;;;;;;43.28;20.33;;;;;;;-4.08;95.00;102261.25;7395666;19;20097;-72
2022/12/17 13:52:03;;;;;;;48.95;21.60;;;;;;;-4.07;94.83;102265.56;7395486;19;20424;-72
2022/12/17 13:54:41;;;;;;;55.20;30.40;;;;;;;-4.08;94.52;102261.25;7395661;19;20015;-71
2022/12/17 13:57:11;;;;;;;44.45;20.85;;;;;;;-4.08;94.67;102266.38;7394412;19;20074;-72
2022/12/17 13:59:39;;;;;;;38.15;19.65;;;;;;;-4.08;94.86;102271.50;7395149;19;20015;-72
2022/12/17 14:02:08;;;;;;;44.58;20.58;;;;;;;-4.10;94.75;102267.94;7395432;19;20035;-70
2022/12/17 14:04:36;;;;;;;47.65;20.70;;;;;;;-4.08;94.58;102284.31;7395235;19;20026;-71
2022/12/17 14:07:07;;;;;;;48.38;21.42;;;;;;;-4.09;94.69;102283.41;7393615;19;20073;-71
2022/12/17 14:09:38;;;;;;;47.60;22.52;;;;;;;-4.11;94.81;102282.44;7395304;19;20536;-72
2022/12/17 14:12:22;;;;;;;55.80;24.50;;;;;;;-4.09;94.62;102285.09;7395093;19;20039;-71
2022/12/17 14:14:54;;;;;;;57.28;27.40;;;;;;;-4.08;94.51;102286.88;7395383;19;20021;-72
2022/12/17 14:17:25;;;;;;;56.10;25.58;;;;;;;-4.07;94.56;102301.44;7393079;19;20134;-70
2022/12/17 14:20:00;;;;;;;40.55;18.25;;;;;;;-4.09;94.43;102298.78;7394322;19;20422;-71
2022/12/17 14:22:35;;;;;;;40.22;18.92;;;;;;;-4.09;94.73;102298.78;7394946;19;20090;-71
2022/12/17 14:25:04;;;;;;;46.88;19.10;;;;;;;-4.09;94.55;102296.22;7395216;19;20071;-70
2022/12/17 14:27:38;;;;;;;50.30;23.35;;;;;;;-4.12;94.39;102301.16;7391899;19;20022;-70
2022/12/17 14:30:23;;;;;;;47.87;24.87;;;;;;;-4.12;94.27;102307.97;7394409;19;20015;-70
2022/12/17 14:32:52;;;;;;;63.08;27.33;;;;;;;-4.16;94.45;102306.00;7397242;19;20074;-70
2022/12/17 14:35:29;;;;;;;54.20;25.35;;;;;;;-4.16;94.29;102318.81;7396082;19;20015;-72
2022/12/17 14:37:58;;;;;;;58.83;26.98;;;;;;;-4.18;94.21;102320.38;7398697;19;20443;-71
2022/12/17 14:40:27;;;;;;;53.95;22.85;;;;;;;-4.19;94.53;102326.31;7401966;19;20101;-70
2022/12/17 14:43:03;;;;;;;53.05;23.35;;;;;;;-4.20;94.54;102327.97;7402584;19;20031;-71
2022/12/17 14:45:31;;;;;;;67.07;29.25;;;;;;;-4.21;94.39;102326.19;7401685;19;20015;-71
2022/12/17 14:48:03;;;;;;;47.72;21.60;;;;;;;-4.21;94.67;102335.56;7399078;19;20086;-72
2022/12/17 14:50:35;;;;;;;54.13;21.85;;;;;;;-4.22;94.58;102334.72;7402323;19;20014;-71
2022/12/17 14:53:05;;;;;;;53.35;21.88;;;;;;;-4.20;94.59;102342.50;7399141;19;20090;-71
2022/12/17 14:55:37;;;;;;;49.25;22.63;;;;;;;-4.23;94.61;102342.28;7401111;19;20028;-70
2022/12/17 14:58:22;;;;;;;53.95;22.73;;;;;;;-4.24;94.46;102341.41;7400955;19;20405;-70
2022/12/17 15:00:55;;;;;;;42.65;19.17;;;;;;;-4.23;94.21;102343.19;7400911;19;20541;-71
2022/12/17 15:03:27;;;;;;;73.20;25.98;;;;;;;-4.28;94.03;102349.69;7401426;19;20027;-73
2022/12/17 15:05:59;;;;;;;41.92;19.67;;;;;;;-4.32;94.39;102338.34;7400446;19;20015;-71
2022/12/17 15:08:34;;;;;;;44.97;19.13;;;;;;;-4.32;94.20;102340.91;7399124;19;20086;-72
2022/12/17 15:11:03;;;;;;;47.13;19.90;;;;;;;-4.35;94.63;102348.38;7401224;19;20037;-71
2022/12/17 15:13:34;;;;;;;60.63;26.40;;;;;;;-4.36;94.26;102355.97;7398897;19;20138;-71
2022/12/17 15:16:02;;;;;;;99.55;34.97;;;;;;;-4.38;94.61;102366.13;7400233;19;20085;-71
2022/12/17 15:18:31;;;;;;;50.47;21.35;;;;;;;-4.40;94.46;102357.44;7399675;19;20094;-71
2022/12/17 15:20:59;;;;;;;106.10;34.15;;;;;;;-4.43;94.33;102370.94;7399906;19;20074;-71
2022/12/17 15:23:28;;;;;;;80.93;27.00;;;;;;;-4.44;94.43;102364.03;7399538;19;20422;-71
2022/12/17 15:25:56;;;;;;;48.78;20.52;;;;;;;-4.48;94.37;102367.19;7398822;19;20103;-73
2022/12/17 15:28:28;;;;;;;46.53;21.48;;;;;;;-4.45;94.57;102376.75;7397693;19;20085;-71
2022/12/17 15:30:59;;;;;;;57.20;23.90;;;;;;;-4.45;94.36;102374.19;7400137;19;20074;-71
2022/12/17 15:33:27;;;;;;;57.47;24.85;;;;;;;-4.47;94.45;102373.22;7397655;19;20083;-71
2022/12/17 15:35:56;;;;;;;54.63;22.17;;;;;;;-4.47;94.48;102378.34;7398992;19;20018;-71
2022/12/17 15:38:24;;;;;;;51.42;24.50;;;;;;;-4.50;94.19;102381.59;7399504;19;20086;-70
2022/12/17 15:40:53;;;;;;;55.03;25.40;;;;;;;-4.53;94.56;102383.94;7400326;19;20501;-72
2022/12/17 15:43:18;;;;;;;64.28;26.88;;;;;;;-4.52;94.60;102379.72;7400097;19;20014;-71
2022/12/17 15:45:49;;;;;;;55.13;23.33;;;;;;;-4.53;94.36;102383.06;7397192;19;20010;-71
2022/12/17 15:48:22;;;;;;;60.85;21.83;;;;;;;-4.54;94.43;102381.28;7395491;19;20477;-70
2022/12/17 15:50:51;;;;;;;54.05;21.15;;;;;;;-4.60;94.24;102381.75;7399868;19;20089;-72
2022/12/17 15:53:19;;;;;;;60.30;22.58;;;;;;;-4.63;94.58;102377.31;7399063;19;20090;-72
2022/12/17 15:55:48;;;;;;;60.83;24.40;;;;;;;-4.62;94.79;102383.34;7398545;19;20081;-72
2022/12/17 15:58:17;;;;;;;56.97;21.70;;;;;;;-4.64;94.62;102388.38;7399065;19;20565;-70
2022/12/17 16:00:46;;;;;;;59.80;23.52;;;;;;;-4.65;94.78;102388.25;7399801;19;20041;-71
2022/12/17 16:03:14;;;;;;;65.15;25.20;;;;;;;-4.68;94.70;102388.03;7398670;19;20540;-71
2022/12/17 16:05:45;;;;;;;56.55;21.77;;;;;;;-4.67;94.77;102392.41;7398218;19;20074;-72
2022/12/17 16:08:14;;;;;;;58.30;23.08;;;;;;;-4.71;94.79;102390.38;7396314;19;20014;-72
2022/12/17 16:10:43;;;;;;;48.30;20.08;;;;;;;-4.70;94.75;102392.16;7398296;19;20077;-71
2022/12/17 16:13:11;;;;;;;57.08;23.38;;;;;;;-4.72;94.65;102396.31;7397009;19;20015;-72
2022/12/17 16:15:39;;;;;;;62.38;25.67;;;;;;;-4.72;94.85;102399.75;7397746;19;20082;-70
2022/12/17 16:18:08;;;;;;;62.80;25.92;;;;;;;-4.72;94.60;102398.88;7398210;19;20078;-74
2022/12/17 16:20:36;;;;;;;57.35;23.38;;;;;;;-4.71;94.83;102398.06;7397780;19;20073;-72
2022/12/17 16:23:07;;;;;;;69.88;26.52;;;;;;;-4.69;94.67;102401.63;7397949;19;20486;-71
2022/12/17 16:25:36;;;;;;;77.07;29.08;;;;;;;-4.69;94.72;102396.50;7397415;19;20549;-71
2022/12/17 16:28:05;;;;;;;67.60;28.40;;;;;;;-4.69;94.79;102402.50;7397122;19;20025;-71
2022/12/17 16:30:33;;;;;;;78.28;30.27;;;;;;;-4.71;94.86;102401.53;7398310;19;20019;-71
2022/12/17 16:33:02;;;;;;;76.95;28.40;;;;;;;-4.71;94.82;102405.75;7397921;19;20510;-71
2022/12/17 16:35:30;;;;;;;81.32;30.05;;;;;;;-4.73;94.80;102403.09;7397265;19;20038;-71
2022/12/17 16:37:58;;;;;;;72.85;28.90;;;;;;;-4.71;94.91;102409.22;7397527;19;20552;-71
2022/12/17 16:40:29;;;;;;;62.35;26.35;;;;;;;-4.71;94.59;102418.56;7397813;19;20070;-71
2022/12/17 16:42:58;;;;;;;70.97;27.75;;;;;;;-4.74;94.56;102419.25;7398285;19;20086;-70
2022/12/17 16:45:26;;;;;;;66.68;27.67;;;;;;;-4.76;94.49;102424.25;7396701;19;20035;-71
2022/12/17 16:47:55;;;;;;;73.65;29.98;;;;;;;-4.80;94.25;102419.72;7396645;19;20089;-72
2022/12/17 16:50:23;;;;;;;70.00;30.20;;;;;;;-4.83;94.21;102422.06;7397634;19;20023;-72
2022/12/17 16:52:52;;;;;;;64.15;24.75;;;;;;;-4.86;93.98;102433.78;7397704;19;20019;-71
2022/12/17 16:55:20;;;;;;;71.28;28.65;;;;;;;-4.89;94.31;102428.44;7396737;19;20493;-71
2022/12/17 16:57:51;;;;;;;74.30;28.15;;;;;;;-4.91;94.58;102428.34;7396836;19;20022;-71
2022/12/17 17:00:20;;;;;;;64.15;25.25;;;;;;;-4.95;94.49;102431.50;7398012;19;20082;-72
2022/12/17 17:02:49;;;;;;;60.00;21.67;;;;;;;-4.99;94.36;102427.81;7397356;19;20022;-70
2022/12/17 17:05:17;;;;;;;63.72;25.88;;;;;;;-5.02;94.53;102436.97;7396582;19;20418;-72
2022/12/17 17:07:46;;;;;;;57.60;22.50;;;;;;;-5.06;94.33;102440.97;7396446;19;20078;-71
2022/12/17 17:10:14;;;;;;;83.65;38.55;;;;;;;-5.10;94.18;102439.00;7396931;19;20105;-71
2022/12/17 17:12:43;;;;;;;62.20;25.08;;;;;;;-5.15;94.08;102436.09;7396190;19;20078;-72
2022/12/17 17:15:14;;;;;;;61.83;24.45;;;;;;;-5.16;94.24;102443.69;7397170;19;20035;-70
2022/12/17 17:17:42;;;;;;;59.63;24.63;;;;;;;-5.18;94.50;102440.13;7395702;19;20066;-72
2022/12/17 17:20:12;;;;;;;64.55;27.15;;;;;;;-5.21;94.61;102438.22;7396581;19;20086;-72
2022/12/17 17:22:41;;;;;;;74.90;26.02;;;;;;;-5.21;94.59;102437.34;7396846;19;20066;-73
2022/12/17 17:25:10;;;;;;;67.43;25.95;;;;;;;-5.23;94.42;102439.81;7396488;19;20078;-72
2022/12/17 17:27:38;;;;;;;64.72;24.92;;;;;;;-5.25;94.46;102436.25;7394397;19;20077;-71
2022/12/17 17:30:08;;;;;;;77.03;28.30;;;;;;;-5.26;94.46;102431.91;7395798;19;20480;-71
2022/12/17 17:32:39;;;;;;;79.57;29.33;;;;;;;-5.28;94.13;102433.50;7396443;19;20130;-72
2022/12/17 17:35:08;;;;;;;75.13;27.23;;;;;;;-5.30;94.25;102441.03;7394557;19;20541;-72
2022/12/17 17:37:37;;;;;;;74.78;26.80;;;;;;;-5.29;94.55;102447.06;7396334;19;20086;-71
2022/12/17 17:40:06;;;;;;;77.65;29.27;;;;;;;-5.31;94.64;102444.38;7396100;19;20070;-71
2022/12/17 17:42:34;;;;;;;63.50;23.67;;;;;;;-5.32;94.48;102457.06;7395857;19;20010;-72
2022/12/17 17:45:03;;;;;;;66.97;24.15;;;;;;;-5.32;94.49;102451.94;7397822;19;20018;-72
2022/12/17 17:47:31;;;;;;;70.75;26.08;;;;;;;-5.33;94.51;102457.84;7393818;19;20023;-72
2022/12/17 17:50:02;;;;;;;78.10;27.02;;;;;;;-5.35;94.42;102456.84;7395174;19;20015;-70
2022/12/17 17:52:31;;;;;;;70.70;25.42;;;;;;;-5.38;94.19;102464.31;7395969;19;20061;-70
2022/12/17 17:54:59;;;;;;;68.45;25.75;;;;;;;-5.43;94.38;102464.88;7395466;19;20074;-70
2022/12/17 17:57:27;;;;;;;65.95;23.85;;;;;;;-5.43;94.23;102464.88;7393896;19;20039;-72
2022/12/17 17:59:56;;;;;;;68.40;25.77;;;;;;;-5.44;94.62;102472.44;7396289;19;20081;-72
2022/12/17 18:02:24;;;;;;;68.80;26.02;;;;;;;-5.45;94.18;102470.66;7393442;19;20085;-71
2022/12/17 18:04:53;;;;;;;74.90;27.15;;;;;;;-5.46;94.19;102481.66;7394992;19;20078;-72
2022/12/17 18:07:24;;;;;;;73.45;26.15;;;;;;;-5.49;94.35;102471.22;7393256;19;20094;-72
2022/12/17 18:09:52;;;;;;;77.20;29.27;;;;;;;-5.50;94.25;102478.00;7393729;19;20083;-72
2022/12/17 18:15:02;;;;;;;79.82;28.33;;;;;;;-5.52;94.13;102488.91;7393454;19;20078;-72
2022/12/17 18:17:30;;;;;;;80.68;28.70;;;;;;;-5.52;94.62;102488.91;7392915;19;20078;-71
2022/12/17 18:19:58;;;;;;;79.40;27.27;;;;;;;-5.52;94.41;102487.25;7394949;19;20023;-71
2022/12/17 18:22:29;;;;;;;96.05;35.83;;;;;;;-5.52;94.43;102486.34;7394943;19;20078;-71
2022/12/17 18:24:58;;;;;;;80.63;29.00;;;;;;;-5.52;94.61;102492.38;7395148;19;20010;-72
2022/12/17 18:27:26;;;;;;;74.72;28.33;;;;;;;-5.53;94.34;102498.25;7392353;19;20379;-72
2022/12/17 18:29:55;;;;;;;91.30;34.28;;;;;;;-5.53;94.17;102495.69;7392885;19;20023;-71
2022/12/17 18:32:23;;;;;;;83.90;27.45;;;;;;;-5.56;94.09;102492.91;7394727;19;20090;-71
2022/12/17 18:34:52;;;;;;;78.63;27.52;;;;;;;-5.57;94.00;102494.56;7394683;19;20156;-71
2022/12/17 18:37:20;;;;;;;76.22;29.25;;;;;;;-5.58;94.14;102503.03;7392828;19;20086;-70
2022/12/17 18:39:51;;;;;;;78.45;28.17;;;;;;;-5.59;94.56;102498.69;7394032;19;20078;-71
2022/12/17 18:45:00;;;;;;;77.10;26.63;;;;;;;-5.60;93.82;102509.72;7396053;19;20015;-70
2022/12/17 18:47:29;;;;;;;85.72;30.80;;;;;;;-5.63;93.93;102512.03;7391500;19;20502;-70
2022/12/17 18:49:57;;;;;;;83.60;28.83;;;;;;;-5.65;93.74;102510.16;7392022;19;20027;-71
2022/12/17 18:52:26;;;;;;;82.63;29.60;;;;;;;-5.69;94.01;102511.59;7393781;19;20139;-71
2022/12/17 18:54:57;;;;;;;96.38;33.92;;;;;;;-5.70;94.12;102525.13;7391308;19;20010;-71
2022/12/17 18:57:26;;;;;;;94.43;31.95;;;;;;;-5.73;93.84;102517.25;7390997;19;20015;-71
2022/12/17 18:59:57;;;;;;;111.70;38.13;;;;;;;-5.76;94.06;102515.38;7393202;19;20082;-71
2022/12/17 19:02:25;;;;;;;92.63;33.03;;;;;;;-5.79;94.12;102522.81;7392821;19;20023;-71
2022/12/17 19:04:54;;;;;;;96.55;33.72;;;;;;;-5.80;94.52;102520.13;7393002;19;20040;-70
2022/12/17 19:07:22;;;;;;;103.38;33.28;;;;;;;-5.79;94.65;102524.47;7390995;19;20483;-72
2022/12/17 19:09:51;;;;;;;107.55;37.40;;;;;;;-5.79;94.51;102530.47;7390882;19;20102;-73
2022/12/17 19:12:22;;;;;;;121.38;37.00;;;;;;;-5.78;94.70;102542.47;7392749;19;20082;-70
2022/12/17 19:14:50;;;;;;;99.95;34.05;;;;;;;-5.77;94.58;102543.38;7391206;19;20015;-70
2022/12/17 19:17:19;;;;;;;90.50;30.13;;;;;;;-5.77;94.55;102545.94;7391333;19;20074;-68
2022/12/17 19:19:48;;;;;;;78.22;29.90;;;;;;;-5.81;94.17;102539.72;7393260;19;20070;-68
2022/12/17 19:22:17;;;;;;;76.70;27.85;;;;;;;-5.81;93.84;102544.81;7392707;19;20015;-69
2022/12/17 19:24:45;;;;;;;76.57;29.13;;;;;;;-5.84;93.76;102557.38;7400540;19;20540;-71
2022/12/17 19:27:14;;;;;;;81.40;27.77;;;;;;;-5.88;93.97;102557.91;7398559;19;20035;-72
2022/12/17 19:29:55;;;;;;;73.43;26.25;;;;;;;-5.93;93.96;102555.00;7398442;19;20079;-72
2022/12/17 19:32:24;;;;;;;79.97;25.88;;;;;;;-5.93;94.15;102556.69;7400838;19;20034;-73
2022/12/17 19:34:52;;;;;;;77.88;26.83;;;;;;;-5.96;94.21;102551.38;7400488;19;20033;-72
2022/12/17 19:37:21;;;;;;;81.40;29.20;;;;;;;-5.96;94.20;102565.03;7397930;19;20073;-71
2022/12/17 19:39:49;;;;;;;86.65;27.25;;;;;;;-5.98;94.40;102568.28;7399914;19;20442;-72
2022/12/17 19:42:26;;;;;;;84.95;27.90;;;;;;;-5.97;94.43;102564.91;7399984;19;20035;-73
2022/12/17 19:44:58;;;;;;;92.15;28.40;;;;;;;-5.98;94.52;102569.13;7400512;19;20029;-72
2022/12/17 19:47:29;;;;;;;90.90;27.00;;;;;;;-5.98;94.33;102566.56;7397965;19;20093;-72
2022/12/17 19:49:57;;;;;;;91.78;29.30;;;;;;;-5.97;94.55;102572.59;7396948;19;20014;-72
2022/12/17 19:52:26;;;;;;;91.32;29.50;;;;;;;-5.95;94.60;102563.34;7399700;19;20078;-71
2022/12/17 19:54:54;;;;;;;84.13;28.73;;;;;;;-5.95;94.39;102569.38;7399670;19;20022;-71
2022/12/17 19:57:23;;;;;;;90.68;32.42;;;;;;;-5.93;94.56;102572.03;7397232;19;20018;-71
2022/12/17 19:59:51;;;;;;;90.30;29.98;;;;;;;-5.96;94.34;102570.13;7399427;19;20018;-72
2022/12/17 20:02:22;;;;;;;78.43;27.50;;;;;;;-5.96;94.38;102567.56;7399732;19;20018;-70
2022/12/17 20:04:51;;;;;;;78.15;25.00;;;;;;;-5.98;94.18;102564.00;7399333;19;20031;-71
2022/12/17 20:07:19;;;;;;;80.50;26.65;;;;;;;-5.99;94.27;102576.72;7397059;19;20544;-70
2022/12/17 20:09:47;;;;;;;79.75;26.90;;;;;;;-6.04;94.44;102576.34;7397684;19;20077;-74
2022/12/17 20:12:23;;;;;;;89.28;27.88;;;;;;;-6.02;94.81;102594.38;7399869;19;20031;-72
2022/12/17 20:14:51;;;;;;;87.78;27.73;;;;;;;-6.00;94.87;102590.25;7398143;19;20066;-70
2022/12/17 20:17:24;;;;;;;87.82;27.92;;;;;;;-5.98;94.84;102593.84;7396732;19;20422;-72
2022/12/17 20:19:55;;;;;;;91.82;28.27;;;;;;;-5.98;94.58;102593.84;7398767;19;20018;-72
2022/12/17 20:22:23;;;;;;;93.05;26.00;;;;;;;-5.98;94.56;102599.78;7399546;19;20018;-73
2022/12/17 20:24:52;;;;;;;90.18;25.55;;;;;;;-6.02;94.61;102594.38;7398518;19;20433;-72
2022/12/17 20:27:20;;;;;;;85.20;27.35;;;;;;;-6.01;94.80;102591.06;7397052;19;20018;-72
2022/12/17 20:29:49;;;;;;;80.65;26.80;;;;;;;-6.01;94.85;102593.63;7396797;19;20014;-72
2022/12/17 20:32:20;;;;;;;82.43;25.92;;;;;;;-6.03;94.72;102600.25;7398823;19;20026;-75
2022/12/17 20:34:51;;;;;;;84.15;27.58;;;;;;;-6.05;94.91;102589.94;7397748;19;20010;-73
2022/12/17 20:37:19;;;;;;;88.65;29.80;;;;;;;-6.05;95.02;102595.03;7397583;19;20015;-73
2022/12/17 20:39:48;;;;;;;92.00;29.38;;;;;;;-6.05;94.90;102592.50;7398669;19;20074;-73
2022/12/17 20:42:16;;;;;;;79.93;26.48;;;;;;;-6.06;94.98;102598.38;7398060;19;20015;-73
2022/12/17 20:44:45;;;;;;;80.60;26.73;;;;;;;-6.03;95.15;102600.25;7397565;19;20015;-73
2022/12/17 20:47:13;;;;;;;81.60;26.40;;;;;;;-6.02;95.06;102592.69;7396379;19;20423;-71
2022/12/17 20:49:42;;;;;;;87.18;25.40;;;;;;;-5.99;95.09;102599.72;7396285;19;20082;-70
2022/12/17 20:52:13;;;;;;;91.38;28.98;;;;;;;-5.96;95.14;102598.25;7398213;19;20413;-71
2022/12/17 20:54:41;;;;;;;104.93;30.60;;;;;;;-5.94;95.18;102603.47;7398073;19;20078;-72
2022/12/17 20:57:12;;;;;;;89.35;24.35;;;;;;;-5.94;95.09;102601.81;7396299;19;20074;-70
2022/12/17 20:59:40;;;;;;;87.97;25.83;;;;;;;-5.92;94.98;102609.59;7396451;19;20090;-70
2022/12/17 21:02:09;;;;;;;96.25;29.50;;;;;;;-5.91;94.84;102606.28;7397691;19;20081;-69
2022/12/17 21:04:37;;;;;;;91.75;28.58;;;;;;;-5.90;95.06;102605.50;7395839;19;20019;-70
2022/12/17 21:07:06;;;;;;;102.85;28.98;;;;;;;-5.90;94.84;102603.81;7395454;19;20505;-73
2022/12/17 21:09:37;;;;;;;90.80;28.40;;;;;;;-5.90;94.92;102608.94;7396067;19;20078;-73
2022/12/17 21:12:05;;;;;;;95.32;28.08;;;;;;;-5.89;94.88;102603.06;7397459;19;20018;-72
2022/12/17 21:14:34;;;;;;;86.78;28.55;;;;;;;-5.90;94.61;102605.50;7395658;19;20023;-73
2022/12/17 21:17:02;;;;;;;87.95;27.45;;;;;;;-5.91;94.82;102608.84;7395117;19;20506;-75
2022/12/17 21:19:31;;;;;;;106.60;29.33;;;;;;;-5.92;94.98;102607.91;7397200;19;20026;-73
2022/12/17 21:21:59;;;;;;;97.85;30.88;;;;;;;-5.91;94.87;102606.28;7397825;19;20079;-74
2022/12/17 21:24:28;;;;;;;87.07;26.98;;;;;;;-5.91;94.80;102608.84;7396462;19;20484;-75
2022/12/17 21:26:59;;;;;;;95.55;28.90;;;;;;;-5.91;94.92;102611.38;7395955;19;20469;-73
2022/12/17 21:29:27;;;;;;;89.90;30.77;;;;;;;-5.90;94.70;102613.19;7395751;19;20090;-74
2022/12/17 21:31:56;;;;;;;96.40;30.45;;;;;;;-5.90;95.03;102608.06;7395013;19;20082;-74
2022/12/17 21:34:28;;;;;;;85.43;29.75;;;;;;;-5.89;94.94;102612.38;7396531;19;20018;-73
2022/12/17 21:36:57;;;;;;;94.18;32.03;;;;;;;-5.89;95.13;102618.41;7396124;19;20081;-73
2022/12/17 21:39:25;;;;;;;101.75;29.33;;;;;;;-5.88;94.77;102624.38;7396374;19;20081;-73
2022/12/17 21:44:38;;;;;;;90.22;30.48;;;;;;;-5.88;94.61;102616.72;7395119;19;20011;-75
2022/12/17 21:47:06;;;;;;;95.43;30.50;;;;;;;-5.90;94.71;102626.84;7393845;19;20015;-73
2022/12/17 21:49:35;;;;;;;96.15;29.33;;;;;;;-5.89;94.79;102626.06;7395270;19;20165;-74
2022/12/17 21:52:04;;;;;;;81.45;28.02;;;;;;;-5.93;94.74;102624.03;7396446;19;20022;-73
2022/12/17 21:54:32;;;;;;;91.15;29.02;;;;;;;-5.95;94.57;102632.34;7395368;19;20366;-73
2022/12/17 21:57:01;;;;;;;96.72;29.30;;;;;;;-5.92;94.79;102643.72;7394165;19;20022;-72
2022/12/17 21:59:30;;;;;;;92.57;28.83;;;;;;;-5.93;94.81;102651.28;7395184;19;20082;-73
2022/12/17 22:02:01;;;;;;;103.60;31.35;;;;;;;-5.95;94.49;102656.28;7395644;19;20035;-74
2022/12/17 22:04:29;;;;;;;95.55;32.58;;;;;;;-5.95;94.76;102656.28;7396065;19;20090;-74
2022/12/17 22:06:57;;;;;;;107.20;32.83;;;;;;;-5.96;94.83;102653.59;7393764;19;20481;-74
2022/12/17 22:09:26;;;;;;;90.53;29.55;;;;;;;-5.95;94.74;102656.28;7395254;19;20055;-73
2022/12/17 22:14:01;;;;;;;89.18;30.08;;;;;;;-5.96;94.85;102658.72;7395427;19;20039;-73
2022/12/17 22:14:40;;;;;;;86.38;29.70;;;;;;;-5.97;94.46;102657.81;7393477;19;20033;-73
2022/12/17 22:17:11;;;;;;;85.80;28.77;;;;;;;-5.98;94.68;102662.84;7393494;19;20011;-73
2022/12/17 22:19:40;;;;;;;76.65;27.73;;;;;;;-6.01;94.37;102660.06;7394815;19;20082;-73
2022/12/17 22:22:09;;;;;;;75.05;26.70;;;;;;;-6.07;94.37;102666.47;7394995;19;20015;-73
2022/12/17 22:24:37;;;;;;;102.05;31.60;;;;;;;-6.12;94.41;102660.09;7395009;19;20074;-73
2022/12/17 22:27:06;;;;;;;74.93;26.30;;;;;;;-6.12;94.04;102667.78;7392853;19;20015;-73
2022/12/17 22:34:59;;;;;;;70.97;24.75;;;;;;;-6.21;94.07;102669.63;7394536;19;20014;-73
2022/12/17 22:37:27;;;;;;;75.28;27.40;;;;;;;-6.23;94.23;102674.63;7392635;19;20018;-73
2022/12/17 22:39:56;;;;;;;79.85;28.20;;;;;;;-6.24;94.47;102688.16;7394020;19;20022;-73
2022/12/17 22:45:06;;;;;;;86.53;28.33;;;;;;;-6.28;94.61;102688.72;7394582;19;20025;-72
2022/12/17 22:47:37;;;;;;;85.68;29.13;;;;;;;-6.29;94.55;102693.66;7394367;19;20070;-72
2022/12/17 22:50:07;;;;;;;80.00;25.92;;;;;;;-6.30;94.67;102686.81;7392670;19;20430;-73
2022/12/17 22:52:35;;;;;;;85.47;26.63;;;;;;;-6.29;94.73;102696.22;7393869;19;20010;-73
2022/12/17 22:55:04;;;;;;;80.97;28.42;;;;;;;-6.29;94.96;102694.59;7393814;19;20019;-73
2022/12/17 22:57:32;;;;;;;88.32;29.52;;;;;;;-6.28;94.98;102700.56;7395900;19;20082;-73
2022/12/17 23:00:01;;;;;;;87.25;28.88;;;;;;;-6.27;94.69;102703.28;7401234;19;20031;-74
2022/12/17 23:02:29;;;;;;;88.40;27.85;;;;;;;-6.27;94.78;102698.16;7398584;19;20018;-73
2022/12/17 23:05:00;;;;;;;97.57;28.65;;;;;;;-6.24;94.78;102705.19;7400692;19;20090;-73
2022/12/17 23:07:51;;;;;;;81.50;27.73;;;;;;;-6.29;94.45;102697.13;7400846;19;20014;-74
2022/12/17 23:10:21;;;;;;;86.53;28.63;;;;;;;-6.24;94.74;102708.59;7400269;19;20035;-74
2022/12/17 23:12:53;;;;;;;84.10;30.63;;;;;;;-6.24;94.48;102706.06;7400276;19;20028;-74
2022/12/17 23:15:31;;;;;;;90.50;28.25;;;;;;;-6.26;94.48;102707.59;7398512;19;20027;-73
2022/12/17 23:18:02;;;;;;;97.38;30.10;;;;;;;-6.23;94.66;102709.50;7400301;19;20078;-74
2022/12/17 23:20:35;;;;;;;84.68;28.45;;;;;;;-6.25;94.78;102708.50;7400152;19;20022;-73
2022/12/17 23:23:04;;;;;;;80.72;29.95;;;;;;;-6.22;94.39;102716.38;7398309;19;20011;-73
2022/12/17 23:25:32;;;;;;;88.07;30.70;;;;;;;-6.24;94.42;102712.84;7399350;19;20522;-73
2022/12/17 23:28:01;;;;;;;90.47;30.67;;;;;;;-6.23;94.51;102729.94;7399836;19;20501;-73
2022/12/17 23:30:29;;;;;;;82.28;29.05;;;;;;;-6.25;94.56;102722.16;7398574;19;20078;-73
2022/12/17 23:32:58;;;;;;;79.97;28.80;;;;;;;-6.24;94.66;102723.94;7400392;19;20021;-73
2022/12/17 23:35:26;;;;;;;85.65;30.67;;;;;;;-6.25;94.40;102731.50;7399520;19;20031;-74
2022/12/17 23:37:57;;;;;;;81.80;30.40;;;;;;;-6.26;94.37;102733.13;7399820;19;20095;-75
2022/12/17 23:40:26;;;;;;;85.85;30.88;;;;;;;-6.26;94.22;102729.69;7399836;19;20015;-73
2022/12/17 23:42:56;;;;;;;77.38;28.50;;;;;;;-6.28;93.92;102739.81;7400016;19;20011;-72
2022/12/17 23:45:24;;;;;;;85.28;29.23;;;;;;;-6.29;94.12;102730.34;7399091;19;20021;-74
2022/12/17 23:47:53;;;;;;;91.28;31.50;;;;;;;-6.29;94.27;102739.66;7399395;19;20086;-74
2022/12/17 23:50:21;;;;;;;85.53;30.05;;;;;;;-6.29;94.37;102737.09;7398448;19;20365;-73
2022/12/17 23:52:50;;;;;;;86.35;28.25;;;;;;;-6.30;94.35;102732.78;7399601;19;20039;-74
2022/12/17 23:55:21;;;;;;;87.30;30.70;;;;;;;-6.30;94.28;102732.78;7398875;19;20435;-74
2022/12/17 23:57:53;;;;;;;92.72;31.05;;;;;;;-6.31;94.08;102731.00;7398968;19;20556;-75
